Flight Track Log - Related Links

Times and Time Zones

All times are in EDT time to prevent confusion due to time zone crossing. See the N16QC flight status page for this flight to view local times or setup timezone preferences in your user account.

Time Position Orientation Groundspeed Altitude Reporting Facility
EDT Latitude Longitude Course Direction KTS MPH feet Rate Location/Type
Tue 06:37:10 PM 34.7569 -82.3222 123° Southeast 129 148 3,600  Level Atlanta Center
Tue 06:38:10 PM 34.7294 -82.3000 146° Southeast 129 148 4,400 800 Climbing Atlanta Center
Tue 06:39:10 PM 34.7000 -82.2828 154° Southeast 139 160 5,200 800 Climbing Atlanta Center
Tue 06:40:00 PM 34.6841 -82.0516 121° Southeast  Level FlightAware Approximate
Tue 06:40:10 PM 34.6683 -82.2558 145° Southeast 139 160 6,000  Level Atlanta Center
Tue 06:41:00 PM 34.6542 -81.9918 121° Southeast  Level FlightAware Approximate
Tue 06:41:10 PM 34.6344 -82.2261 144° Southeast 146 168 6,800  Level Atlanta Center
Tue 06:42:00 PM 34.6183 -81.9382 123° Southeast  Level FlightAware Approximate
Tue 06:42:10 PM 34.6008 -82.2017 149° Southeast 146 168 7,700  Level Atlanta Center
Tue 06:43:10 PM 34.5669 -82.1722 144° Southeast 146 168 8,500 850 Climbing Atlanta Center
Tue 06:44:10 PM 34.5372 -82.1400 138° Southeast 152 175 9,400 850 Climbing Atlanta Center
Tue 06:45:10 PM 34.5033 -82.1031 138° Southeast 152 175 10,200 850 Climbing Atlanta Center
Tue 06:46:10 PM 34.4836 -82.0581 118° Southeast 152 175 11,100 500 Climbing Atlanta Center
Tue 06:47:10 PM 34.4722 -81.9953 102° East 163 188 11,200  Climbing Atlanta Center
Tue 06:48:10 PM 34.4606 -81.9225 101° East 192 221 11,100 -50 Descending Atlanta Center
Tue 06:49:10 PM 34.4467 -81.8497 103° East 211 243 11,100  Level Atlanta Center
Tue 06:50:10 PM 34.4331 -81.7797 103° East 216 249 11,100 -50 Level Atlanta Center
Tue 06:51:10 PM 34.4169 -81.7097 106° East 221 254 11,000  Descending Atlanta Center
Tue 06:53:07 PM 34.3886 -81.5742 104° East 225 259 11,100 34 Climbing Jacksonville Center
Tue 06:54:07 PM 34.3775 -81.5039 101° East 219 252 11,100  Level Jacksonville Center
Tue 06:55:07 PM 34.3622 -81.4361 105° East 214 246 11,100  Level Jacksonville Center
Tue 06:56:07 PM 34.3508 -81.3658 101° East 214 246 11,100  Level Jacksonville Center
Tue 06:57:07 PM 34.3333 -81.2933 106° East 208 239 11,100  Level Jacksonville Center
Tue 06:58:07 PM 34.3197 -81.2231 103° East 203 234 11,100  Level Jacksonville Center
Tue 06:59:07 PM 34.3086 -81.1556 101° East 203 234 11,100  Level Jacksonville Center
Tue 07:00:07 PM 34.2972 -81.0853 101° East 203 234 11,100  Level Jacksonville Center
Tue 07:01:07 PM 34.2856 -81.0178 102° East 203 234 11,100  Level Jacksonville Center
Tue 07:02:07 PM 34.2764 -80.9525 100° East 203 234 11,100  Level Jacksonville Center
Tue 07:03:07 PM 34.2628 -80.8825 103° East 203 234 11,100  Level Jacksonville Center
Tue 07:04:07 PM 34.2469 -80.8125 105° East 203 234 11,100  Level Jacksonville Center
Tue 07:05:07 PM 34.2375 -80.7425 99° East 208 239 11,100  Level Jacksonville Center
Tue 07:06:07 PM 34.2236 -80.6725 103° East 208 239 11,100  Level Jacksonville Center
Tue 07:07:07 PM 34.2119 -80.6025 101° East 208 239 11,100  Level Jacksonville Center
Tue 07:08:07 PM 34.1942 -80.5328 107° East 208 239 11,100  Level Jacksonville Center
Tue 07:09:07 PM 34.1822 -80.4628 102° East 208 239 11,100  Level Jacksonville Center
Tue 07:10:07 PM 34.1683 -80.3928 103° East 208 239 11,100  Level Jacksonville Center
Tue 07:11:07 PM 34.1567 -80.3256 102° East 208 239 11,100  Level Jacksonville Center
Tue 07:12:07 PM 34.1469 -80.2556 100° East 208 239 11,100  Level Jacksonville Center
Tue 07:13:07 PM 34.1328 -80.1856 104° East 208 239 11,100  Level Jacksonville Center
Tue 07:14:07 PM 34.1208 -80.1133 101° East 208 239 11,100  Level Jacksonville Center
Tue 07:15:07 PM 34.1108 -80.0433 100° East 208 239 11,100  Level Jacksonville Center
Tue 07:16:07 PM 34.0925 -79.9686 106° East 213 245 11,100 33 Level Jacksonville Center
Tue 07:18:07 PM 34.0642 -79.8267 104° East 218 251 11,200  Climbing Jacksonville Center
Tue 07:19:07 PM 34.0478 -79.7597 106° East 218 251 11,100  Descending Jacksonville Center
Tue 07:20:07 PM 34.0294 -79.6903 108° East 218 251 11,200  Climbing Jacksonville Center
Tue 07:21:07 PM 34.0150 -79.6181 104° East 218 251 11,100 -300 Descending Jacksonville Center
Tue 07:22:07 PM 33.9983 -79.5411 105° East 223 257 10,600 -600 Descending Jacksonville Center
Tue 07:23:07 PM 33.9797 -79.4667 107° East 229 264 9,900 -800 Descending Jacksonville Center
Tue 07:24:07 PM 33.9547 -79.3950 113° Southeast 229 264 9,000 -950 Descending Jacksonville Center
Tue 07:25:07 PM 33.9358 -79.3156 106° East 234 269 8,000 -900 Descending Jacksonville Center
Tue 07:26:07 PM 33.9150 -79.2389 108° East 234 269 7,200 -1,050 Descending Jacksonville Center
Tue 07:27:07 PM 33.8981 -79.1622 105° East 234 269 5,900 -1,150 Descending Jacksonville Center
Tue 07:28:07 PM 33.8811 -79.0853 105° East 240 276 4,900 -1,000 Descending Jacksonville Center
Tue 07:29:07 PM 33.8706 -79.0083 99° East 240 276 3,900 -1,000 Descending Jacksonville Center
Tue 07:31:00 PM 33.8477 -78.8904 103° East  Level FlightAware Approximate
Tue 07:38:00 PM 33.8117 -78.7239 112° Southeast  Level Estimated
Tue 07:39:00 PM 33.8117 -78.7239 112° Southeast  Level Estimated
Tue 07:40:00 PM 33.8117 -78.7239 112° Southeast  Level Estimated
Tue 07:41:00 PM 33.8117 -78.7239 112° Southeast  Level Estimated

Login

Don't have an account? Register now (free) for customized features, flight alerts, and more!